Arapahoe, Colorado
Current Conditions -  °F | °C
As of 2:53 PM on Wednesday 22 Oct 2014 (Local Time) from KITR Reporting Station
Clear Clear  
Wind Chill: 72°   Ceiling: Unl
Heat Index: 72°   Visibility: 10mi
Dew Point: 39°   Wind: 7mph
Humidity: 30%   Direction: 30°NNE
Pressure: 30.04"   Gusts: NA
Location:  38.85°N, 102.18°W
Report Text: KITR 222053Z AUTO 03006KT 10SM CLR 22/04 A3004 RMK AO2 SLP129 T02220039 56012
Loading
Personal Weather Stations






























Interactive Weather Map
Tropical Storm Tracking
New forecast layout! Learn more

10-Day Weather Forecast

Advertisements
Track Severe Weather on mobile